x

Southeast Of Ponce, Pr (42085) Wave Buoy

9:00am - Wed 23rd Jul 2014 All times are AST. -4 hours from GMT.

  • Sig Wave height 3.9ft
  • Peak Period 5s
  • Wind
    18mph, 22mph gusts
  • Sea Temp 84°f
  • Sea Pressure 1017.9mb
  • Southeast Of Ponce, Pr
  • Southeast Of Ponce, Pr

More Historic Weather Station data

Upgrade to MSW Pro to gain access to the past 30 days of data for over 8000 Wavebouys and Weather Stations around the globe.

Join Pro

Comparision Forecast

View Surf forecast
   
Wed 07/23 9:00am 4ft 5s 18 22 mph 1017.9mb 84f
8:00am 4.5ft 6s 16 20 mph 1017.6mb 84f
7:00am 4.5ft 6s 18 22 mph 1017.2mb 84f
6:00am 4.5ft 5s 18 22 mph 1016.4mb 84f
5:00am 4.5ft 6s 18 25 mph 1016mb 84f
4:00am 4.5ft 6s 18 22 mph 1015.5mb 84f
3:00am 4.5ft 5s 18 22 mph 1015.8mb 84f
2:00am 4.5ft 6s 20 25 mph 1015.9mb 84f
1:00am 4.5ft 6s 22 27 mph 1016.3mb 84f
12:00am 4ft 6s 20 25 mph 1017mb 84f
Tue 07/22 11:00pm 3.5ft 5s 20 25 mph 1017.4mb 84f
10:00pm 3.5ft 6s 16 20 mph 1017.2mb 84f
9:00pm 3.5ft 6s  -  mph - 84f
8:00pm 4ft 5s 18 22 mph 1016.6mb 84f
7:00pm 4ft 5s 18 22 mph 1016.1mb 84f
6:00pm 4.5ft 6s 18 22 mph 1015.6mb 84f
5:00pm 4.5ft 7s 20 25 mph 1015.4mb 84f
4:00pm 4ft 6s  -  mph - 84f
3:00pm 4ft 6s 18 22 mph 1015.8mb 84f
2:00pm 4ft 6s 18 22 mph 1016.3mb 84f
1:00pm 4ft 6s 18 22 mph 1017mb 84f
12:00pm 4ft 6s 18 22 mph 1017.4mb 84f
11:00am 4.5ft 5s 18 20 mph 1017.6mb 84f
10:00am 4ft 6s 18 22 mph 1017.6mb 84f
9:00am 4ft 5s 18 20 mph 1017.6mb 84f
8:00am 4ft 6s  -  mph - 84f
7:00am 3.5ft 6s 16 20 mph 1016.9mb 84f
6:00am 3.5ft 7s 18 20 mph 1016.3mb 84f
5:00am 3.5ft 7s 18 22 mph 1015.9mb 84f
4:00am 3.5ft 7s 18 22 mph 1015.9mb 84f
3:00am 3.5ft 7s 13 18 mph 1015.7mb 84f
2:00am 3.5ft 6s 13 16 mph 1015.8mb 84f
1:00am 3.5ft 6s 13 18 mph 1016.3mb 84f
12:00am 3.5ft 7s 13 18 mph 1016.9mb 84f
Mon 07/21 11:00pm 4ft 7s 13 18 mph 1017.3mb 84f
10:00pm 4.5ft 6s 18 20 mph 1017mb 84f
9:00pm 4.5ft 6s  -  mph - 84f
8:00pm 4.5ft 6s 18 22 mph 1016.3mb 84f
7:00pm 4.5ft 7s  -  mph - 84f
6:00pm 4.5ft 5s 18 22 mph 1015.7mb 84f
5:00pm 4.5ft 5s 20 25 mph 1015.2mb 84f
4:00pm 4.5ft 6s 20 25 mph 1015.3mb 84f
3:00pm 4.5ft 7s 20 25 mph 1015.5mb 84f
2:00pm 4.5ft 7s 20 25 mph 1016mb 84f
1:00pm 4ft 6s 18 25 mph 1016.7mb 84f
12:00pm 4.5ft 7s 18 22 mph 1017.4mb 84f
11:00am 4ft 7s 16 20 mph 1017.6mb 84f
10:00am 4.5ft 6s 18 20 mph 1017.9mb 84f
9:00am 4ft 7s 16 20 mph 1017.5mb 84f
8:00am 4ft 7s  -  mph - 83f
7:00am 4.5ft 7s  -  mph - 84f
6:00am 4ft 7s 16 18 mph 1016.8mb 84f
5:00am 4ft 7s  -  mph - 84f
4:00am 4ft 7s  -  mph - 84f
3:00am 4.5ft 7s  -  mph - 84f
2:00am 4ft 6s  -  mph - 84f
1:00am 4ft 7s 16 20 mph 1016.7mb 84f
12:00am 3.5ft 8s 18 22 mph 1017.3mb 84f
Sun 07/20 10:00pm 3.5ft 7s  -  mph - 84f
9:00pm 4ft 7s 16 20 mph 1017.2mb 84f
8:00pm 4ft 7s 18 22 mph 1016.7mb 84f
7:00pm 4ft 7s  -  mph - 84f
6:00pm 4ft 6s 18 20 mph 1015.5mb 84f
5:00pm 4.5ft 6s 18 20 mph 1015.3mb 84f
4:00pm 4ft 6s 18 20 mph 1015.5mb 84f
3:00pm 4.5ft 6s 18 22 mph 1015.8mb 84f
2:00pm 4ft 7s 18 22 mph 1016.9mb 84f
1:00pm 4.5ft 6s 16 20 mph 1017.5mb 84f
12:00pm 4.5ft 6s 16 20 mph 1017.9mb 84f
11:00am 4.5ft 7s 18 22 mph 1018.2mb 84f
10:00am 4.5ft 7s 18 20 mph 1018.2mb 84f
9:00am 4.5ft 7s 18 20 mph 1018.2mb 84f
8:00am 4.5ft 6s  -  mph - 84f
7:00am 4.5ft 6s  -  mph - 84f
6:00am 4.5ft 6s 20 22 mph 1016.9mb 84f
5:00am 4.5ft 6s 20 25 mph 1016.4mb 84f
4:00am 4.5ft 6s 18 22 mph 1016.1mb 84f
3:00am 4.5ft 7s 18 25 mph 1016.4mb 84f
2:00am 4.5ft 5s 20 22 mph 1016.3mb 84f
1:00am 4.5ft 5s 20 25 mph 1016.9mb 84f
12:00am 4.5ft 5s 20 25 mph 1017.5mb 84f
Sat 07/19 11:00pm 4ft 6s 20 25 mph 1017.6mb 84f
10:00pm 4.5ft 6s 18 22 mph 1017.6mb 84f
9:00pm 4.5ft 6s  -  mph - 84f
8:00pm 4.5ft 6s  -  mph - 84f
7:00pm 4.5ft 6s  -  mph - 84f
6:00pm 4.5ft 6s 18 22 mph 1015.8mb 84f
5:00pm 4.5ft 5s 18 22 mph 1015.5mb 84f
4:00pm 4ft 5s  -  mph - 84f
3:00pm 4ft 5s 18 20 mph 1016mb 84f